createdAt,value
2022-07-30T00:00:25.125Z,36.40
2022-07-30T00:01:21.753Z,36.50
2022-07-30T00:02:21.633Z,36.50
2022-07-30T00:03:21.741Z,36.50
2022-07-30T00:04:21.608Z,36.60
2022-07-30T00:05:21.603Z,36.50
2022-07-30T00:06:21.584Z,36.50
2022-07-30T00:07:21.574Z,36.21
2022-07-30T00:08:21.563Z,36.50
2022-07-30T00:09:21.554Z,36.30
2022-07-30T00:10:21.541Z,36.60
2022-07-30T00:11:24.650Z,36.50
2022-07-30T00:12:22.518Z,36.50
2022-07-30T00:13:21.510Z,36.50
2022-07-30T00:14:21.497Z,36.60
2022-07-30T00:15:21.487Z,36.40
2022-07-30T00:16:21.537Z,36.50
2022-07-30T00:17:21.494Z,36.50
2022-07-30T00:18:22.404Z,36.50
2022-07-30T00:19:21.443Z,36.40
2022-07-30T00:20:21.433Z,36.50
2022-07-30T00:21:35.692Z,36.30
2022-07-30T00:22:22.433Z,36.50
2022-07-30T00:23:21.399Z,36.50
2022-07-30T00:24:21.388Z,36.30
2022-07-30T00:25:21.379Z,36.50
2022-07-30T00:26:21.368Z,36.50
2022-07-30T00:27:21.356Z,36.60
2022-07-30T00:28:21.361Z,36.40
2022-07-30T00:29:21.335Z,36.50
2022-07-30T00:30:21.325Z,36.30
2022-07-30T00:31:21.313Z,36.50
2022-07-30T00:32:21.301Z,36.30
2022-07-30T00:33:21.294Z,36.50
2022-07-30T00:34:21.289Z,36.42
2022-07-30T00:35:21.272Z,36.50
2022-07-30T00:36:21.258Z,36.32
2022-07-30T00:37:21.249Z,36.32
2022-07-30T00:38:21.236Z,36.71
2022-07-30T00:39:21.225Z,36.82
2022-07-30T00:40:21.220Z,36.30
2022-07-30T00:41:21.230Z,36.30
2022-07-30T00:42:21.193Z,36.30
2022-07-30T00:43:21.182Z,36.32
2022-07-30T00:44:21.171Z,36.60
2022-07-30T00:45:21.166Z,36.71
2022-07-30T00:46:21.267Z,36.71
2022-07-30T00:47:21.138Z,36.91
2022-07-30T00:48:21.128Z,36.52
2022-07-30T00:49:21.149Z,36.71
2022-07-30T00:50:21.585Z,36.91
2022-07-30T00:51:21.094Z,36.02
2022-07-30T00:52:21.132Z,36.12
2022-07-30T00:53:21.072Z,36.82
2022-07-30T00:54:21.061Z,36.61
2022-07-30T00:55:21.051Z,36.42
2022-07-30T00:56:21.052Z,36.42
2022-07-30T00:57:21.030Z,36.32
2022-07-30T00:58:21.038Z,36.71
2022-07-30T00:59:21.006Z,36.42
2022-07-30T01:00:20.996Z,36.42
2022-07-30T01:01:21.132Z,36.42
2022-07-30T01:02:21.115Z,36.22
2022-07-30T01:03:20.963Z,36.40
2022-07-30T01:04:20.969Z,36.42
2022-07-30T01:05:20.941Z,36.42
2022-07-30T01:06:20.935Z,36.50
2022-07-30T01:07:20.921Z,36.52
2022-07-30T01:08:20.910Z,36.42
2022-07-30T01:09:20.898Z,36.42
2022-07-30T01:10:20.893Z,36.91
2022-07-30T01:11:20.875Z,36.50
2022-07-30T01:12:20.865Z,36.71
2022-07-30T01:13:20.854Z,36.02
2022-07-30T01:14:20.845Z,36.52
2022-07-30T01:15:20.832Z,36.32
2022-07-30T01:16:20.887Z,36.42
2022-07-30T01:17:20.812Z,36.90
2022-07-30T01:18:20.800Z,36.52
2022-07-30T01:19:20.790Z,36.52
2022-07-30T01:20:20.778Z,36.60
2022-07-30T01:21:20.767Z,36.42
2022-07-30T01:22:20.762Z,36.42
2022-07-30T01:23:20.747Z,36.42
2022-07-30T01:24:20.734Z,36.70
2022-07-30T01:25:20.724Z,36.52
2022-07-30T01:26:20.718Z,36.61
2022-07-30T01:27:20.700Z,36.22
2022-07-30T01:28:20.724Z,36.42
2022-07-30T01:29:20.679Z,36.22
2022-07-30T01:30:20.670Z,36.40
2022-07-30T01:31:20.708Z,36.22
2022-07-30T01:32:20.652Z,36.40
2022-07-30T01:33:20.636Z,36.40
2022-07-30T01:34:20.643Z,36.11
2022-07-30T01:35:20.615Z,36.40
2022-07-30T01:36:20.604Z,36.22
2022-07-30T01:37:20.610Z,36.22
2022-07-30T01:38:20.582Z,36.22
2022-07-30T01:39:20.570Z,36.42
2022-07-30T01:40:20.582Z,36.42
2022-07-30T01:41:20.549Z,36.22
2022-07-30T01:42:20.539Z,36.40
2022-07-30T01:43:20.527Z,36.40
2022-07-30T01:44:23.684Z,36.22
2022-07-30T01:45:20.537Z,36.11
2022-07-30T01:46:20.621Z,36.11
2022-07-30T01:47:20.485Z,36.12
2022-07-30T01:48:20.472Z,36.12
2022-07-30T01:49:20.518Z,36.42
2022-07-30T01:50:20.452Z,36.12
2022-07-30T01:51:20.440Z,36.12
2022-07-30T01:52:20.436Z,36.42
2022-07-30T01:53:20.417Z,36.12
2022-07-30T01:54:20.407Z,36.22
2022-07-30T01:55:20.396Z,36.02
2022-07-30T01:56:24.772Z,36.02
2022-07-30T01:57:20.374Z,36.22
2022-07-30T01:58:20.854Z,36.00
2022-07-30T01:59:20.353Z,36.02
2022-07-30T02:00:20.343Z,36.22
2022-07-30T02:01:20.413Z,36.02
2022-07-30T02:02:20.320Z,36.02
2022-07-30T02:03:22.043Z,36.12
2022-07-30T02:04:20.327Z,36.22
2022-07-30T02:05:20.287Z,36.32
2022-07-30T02:06:20.275Z,36.12
2022-07-30T02:07:20.267Z,36.22
2022-07-30T02:08:20.255Z,36.32
2022-07-30T02:09:20.245Z,36.22
2022-07-30T02:10:20.247Z,36.42
2022-07-30T02:11:20.221Z,36.22
2022-07-30T02:12:20.212Z,36.22
2022-07-30T02:13:20.200Z,36.22
2022-07-30T02:14:20.188Z,36.42
2022-07-30T02:15:20.177Z,36.12
2022-07-30T02:16:20.221Z,36.12
2022-07-30T02:17:20.156Z,36.12
2022-07-30T02:18:23.713Z,36.02
2022-07-30T02:19:20.134Z,36.12
2022-07-30T02:20:20.123Z,36.32
2022-07-30T02:21:21.122Z,36.12
2022-07-30T02:22:20.102Z,36.32
2022-07-30T02:23:20.091Z,36.22
2022-07-30T02:24:20.086Z,36.61
2022-07-30T02:25:20.087Z,36.52
2022-07-30T02:26:20.058Z,36.32
2022-07-30T02:27:20.052Z,36.12
2022-07-30T02:28:20.036Z,36.32
2022-07-30T02:29:20.024Z,36.22
2022-07-30T02:30:20.016Z,36.32
2022-07-30T02:31:20.060Z,36.22
2022-07-30T02:32:19.993Z,36.22
2022-07-30T02:33:19.989Z,36.22
2022-07-30T02:34:19.972Z,36.61
2022-07-30T02:35:19.962Z,36.22
2022-07-30T02:36:19.948Z,36.22
2022-07-30T02:37:19.938Z,36.91
2022-07-30T02:38:20.948Z,36.63
2022-07-30T02:39:19.916Z,36.52
2022-07-30T02:40:19.907Z,36.32
2022-07-30T02:41:19.895Z,36.32
2022-07-30T02:42:19.884Z,36.12
2022-07-30T02:43:19.873Z,36.22
2022-07-30T02:44:19.894Z,36.12
2022-07-30T02:45:19.851Z,36.22
2022-07-30T02:46:19.872Z,36.32
2022-07-30T02:47:19.831Z,36.12
2022-07-30T02:48:34.382Z,36.22
2022-07-30T02:49:20.919Z,36.22
2022-07-30T02:50:19.798Z,36.32
2022-07-30T02:51:19.784Z,36.12
2022-07-30T02:52:19.782Z,36.52
2022-07-30T02:53:19.764Z,36.22
2022-07-30T02:54:19.755Z,36.32
2022-07-30T02:55:19.747Z,36.22
2022-07-30T02:56:19.730Z,36.52
2022-07-30T02:57:19.721Z,36.32
2022-07-30T02:58:19.708Z,36.61
2022-07-30T02:59:19.706Z,36.32
2022-07-30T03:00:19.689Z,36.82
2022-07-30T03:01:20.243Z,36.82
2022-07-30T03:02:29.418Z,36.91
2022-07-30T03:03:20.654Z,36.82
2022-07-30T03:04:19.643Z,36.52
2022-07-30T03:05:19.633Z,36.24
2022-07-30T03:06:19.622Z,36.82
2022-07-30T03:07:19.615Z,36.91
2022-07-30T03:08:20.002Z,36.52
2022-07-30T03:09:19.589Z,36.42
2022-07-30T03:10:19.580Z,36.91
2022-07-30T03:11:19.567Z,36.54
2022-07-30T03:12:19.556Z,36.91
2022-07-30T03:13:19.576Z,36.42
2022-07-30T03:14:19.536Z,36.82
2022-07-30T03:15:19.523Z,36.91
2022-07-30T03:16:19.566Z,36.24
2022-07-30T03:17:19.502Z,36.54
2022-07-30T03:18:19.491Z,36.22
2022-07-30T03:19:19.496Z,36.32
2022-07-30T03:20:19.470Z,36.61
2022-07-30T03:21:19.459Z,36.22
2022-07-30T03:22:19.557Z,36.82
2022-07-30T03:23:19.440Z,37.01
2022-07-30T03:24:19.426Z,36.91
2022-07-30T03:25:19.423Z,36.91
2022-07-30T03:26:19.404Z,36.83
2022-07-30T03:27:19.397Z,36.71
2022-07-30T03:28:19.382Z,36.91
2022-07-30T03:29:21.756Z,36.42
2022-07-30T03:30:19.364Z,36.73
2022-07-30T03:31:19.449Z,36.71
2022-07-30T03:32:19.349Z,36.71
2022-07-30T03:33:20.329Z,36.82
2022-07-30T03:34:19.316Z,36.82
2022-07-30T03:35:20.223Z,36.82
2022-07-30T03:36:19.294Z,36.82
2022-07-30T03:37:19.289Z,36.52
2022-07-30T03:38:19.274Z,36.54
2022-07-30T03:39:19.262Z,36.52
2022-07-30T03:40:19.252Z,36.52
2022-07-30T03:41:19.241Z,36.52
2022-07-30T03:42:19.229Z,36.32
2022-07-30T03:43:32.391Z,36.71
2022-07-30T03:44:20.206Z,36.54
2022-07-30T03:45:19.196Z,36.44
2022-07-30T03:46:19.241Z,36.61
2022-07-30T03:47:19.177Z,36.52
2022-07-30T03:48:19.163Z,36.52
2022-07-30T03:49:19.242Z,36.52
2022-07-30T03:50:19.143Z,36.73
2022-07-30T03:51:19.133Z,36.42
2022-07-30T03:52:19.122Z,36.32
2022-07-30T03:53:19.110Z,36.44
2022-07-30T03:54:19.099Z,36.52
2022-07-30T03:55:19.095Z,36.54
2022-07-30T03:56:19.078Z,36.52
2022-07-30T03:57:20.502Z,36.52
2022-07-30T03:58:19.055Z,36.54
2022-07-30T03:59:19.044Z,36.52
2022-07-30T04:00:19.045Z,36.52
2022-07-30T04:01:19.106Z,36.54
2022-07-30T04:02:19.010Z,36.52
2022-07-30T04:03:19.052Z,36.52
2022-07-30T04:04:18.989Z,36.61
2022-07-30T04:05:18.980Z,36.71
2022-07-30T04:06:18.968Z,36.61
2022-07-30T04:07:18.979Z,36.52
2022-07-30T04:08:18.947Z,36.63
2022-07-30T04:09:18.935Z,36.52
2022-07-30T04:10:18.924Z,36.71
2022-07-30T04:11:18.916Z,36.61
2022-07-30T04:12:19.908Z,36.61
2022-07-30T04:13:18.891Z,36.61
2022-07-30T04:14:18.881Z,36.52
2022-07-30T04:16:05.694Z,36.71
2022-07-30T04:16:39.853Z,36.61
2022-07-30T04:17:19.917Z,36.52
2022-07-30T04:18:18.842Z,36.61
2022-07-30T04:19:18.826Z,36.71
2022-07-30T04:20:18.815Z,36.61
2022-07-30T04:21:18.803Z,36.71
2022-07-30T04:22:18.793Z,36.61
2022-07-30T04:23:18.782Z,36.61
2022-07-30T04:24:18.801Z,36.32
2022-07-30T04:25:24.702Z,36.61
2022-07-30T04:26:19.748Z,36.52
2022-07-30T04:27:18.738Z,36.42
2022-07-30T04:28:18.729Z,36.32
2022-07-30T04:29:22.676Z,36.32
2022-07-30T04:31:41.022Z,36.42
2022-07-30T04:32:39.598Z,36.32
2022-07-30T04:33:39.586Z,36.22
2022-07-30T04:34:39.576Z,36.02
2022-07-30T04:35:50.662Z,36.52
2022-07-30T04:36:40.567Z,36.02
2022-07-30T04:37:39.543Z,36.71
2022-07-30T04:38:39.531Z,36.91
2022-07-30T04:39:39.519Z,36.82
2022-07-30T04:40:39.508Z,36.71
2022-07-30T04:41:49.533Z,36.73
2022-07-30T04:42:40.491Z,36.61
2022-07-30T04:43:39.475Z,36.82
2022-07-30T04:44:39.466Z,36.52
2022-07-30T04:45:39.453Z,36.52
2022-07-30T04:46:39.514Z,36.61
2022-07-30T04:47:39.430Z,36.52
2022-07-30T04:48:39.492Z,36.52
2022-07-30T04:49:39.410Z,36.32
2022-07-30T04:50:39.398Z,36.32
2022-07-30T04:51:39.386Z,36.32
2022-07-30T04:52:39.376Z,36.71
2022-07-30T04:53:39.364Z,36.32
2022-07-30T04:54:39.382Z,36.02
2022-07-30T04:55:39.342Z,36.02
2022-07-30T04:56:39.331Z,36.22
2022-07-30T04:57:40.318Z,36.02
2022-07-30T04:58:39.307Z,36.02
2022-07-30T04:59:39.297Z,36.02
2022-07-30T05:00:41.411Z,36.02
2022-07-30T05:01:40.786Z,36.00
2022-07-30T05:02:39.264Z,36.32
2022-07-30T05:03:39.253Z,36.02
2022-07-30T05:04:39.242Z,36.61
2022-07-30T05:05:39.321Z,36.22
2022-07-30T05:06:39.242Z,36.32
2022-07-30T05:07:39.215Z,36.32
2022-07-30T05:08:39.198Z,36.52
2022-07-30T05:09:39.186Z,36.52
2022-07-30T05:10:39.174Z,36.71
2022-07-30T05:11:39.164Z,36.12
2022-07-30T05:12:39.184Z,36.22
2022-07-30T05:13:39.142Z,36.71
2022-07-30T05:14:39.131Z,36.00
2022-07-30T05:15:39.178Z,36.21
2022-07-30T05:16:39.109Z,36.42
2022-07-30T05:17:39.098Z,36.40
2022-07-30T05:18:39.092Z,36.71
2022-07-30T05:19:39.075Z,35.83
2022-07-30T05:20:39.064Z,36.90
2022-07-30T05:21:39.055Z,36.30
2022-07-30T05:22:39.043Z,36.82
2022-07-30T05:23:39.031Z,36.61
2022-07-30T05:24:39.026Z,36.52
2022-07-30T05:25:39.009Z,35.81
2022-07-30T05:26:38.998Z,36.22
2022-07-30T05:27:40.349Z,36.02
2022-07-30T05:28:38.976Z,36.02
2022-07-30T05:29:38.964Z,36.50
2022-07-30T05:30:38.983Z,35.73
2022-07-30T05:31:39.022Z,36.42
2022-07-30T05:32:38.931Z,35.83
2022-07-30T05:33:42.472Z,36.40
2022-07-30T05:34:38.909Z,35.33
2022-07-30T05:35:38.899Z,35.83
2022-07-30T05:36:38.907Z,35.14
2022-07-30T05:37:38.876Z,35.33
2022-07-30T05:38:38.865Z,35.22
2022-07-30T05:39:40.910Z,36.32
2022-07-30T05:40:39.842Z,35.71
2022-07-30T05:41:38.831Z,35.22
2022-07-30T05:42:38.835Z,35.53
2022-07-30T05:43:38.810Z,36.21
2022-07-30T05:44:38.799Z,36.80
2022-07-30T05:45:38.787Z,36.50
2022-07-30T05:46:38.836Z,35.52
2022-07-30T05:47:38.766Z,36.80
2022-07-30T05:48:38.790Z,36.70
2022-07-30T05:49:38.742Z,35.22
2022-07-30T05:50:38.731Z,35.22
2022-07-30T05:51:38.721Z,35.22
2022-07-30T05:52:38.709Z,36.60
2022-07-30T05:53:38.698Z,36.60
2022-07-30T05:54:38.708Z,35.22
2022-07-30T05:55:38.676Z,36.11
2022-07-30T05:56:38.665Z,35.12
2022-07-30T05:57:38.654Z,36.60
2022-07-30T05:58:38.643Z,36.60
2022-07-30T05:59:38.632Z,36.60
2022-07-30T06:00:38.629Z,36.70
2022-07-30T06:01:38.654Z,36.00
2022-07-30T06:02:38.598Z,36.50
2022-07-30T06:03:38.587Z,36.60
2022-07-30T06:04:38.666Z,36.70
2022-07-30T06:05:39.595Z,36.70
2022-07-30T06:06:38.553Z,35.91
2022-07-30T06:07:38.543Z,35.71
2022-07-30T06:08:38.532Z,36.70
2022-07-30T06:09:38.519Z,36.00
2022-07-30T06:10:38.512Z,35.61
2022-07-30T06:11:38.505Z,35.52
2022-07-30T06:12:38.487Z,35.61
2022-07-30T06:13:38.478Z,35.71
2022-07-30T06:14:38.465Z,36.00
2022-07-30T06:15:38.473Z,35.61
2022-07-30T06:16:38.442Z,36.30
2022-07-30T06:17:41.123Z,35.71
2022-07-30T06:18:38.422Z,36.00
2022-07-30T06:19:38.415Z,36.30
2022-07-30T06:20:38.400Z,35.71
2022-07-30T06:22:05.651Z,35.91
2022-07-30T06:22:39.383Z,35.91
2022-07-30T06:23:38.370Z,36.30
2022-07-30T06:24:38.356Z,35.31
2022-07-30T06:25:39.897Z,35.31
2022-07-30T06:26:38.333Z,36.30
2022-07-30T06:27:39.930Z,36.29
2022-07-30T06:28:39.251Z,35.81
2022-07-30T06:29:38.299Z,36.29
2022-07-30T06:30:38.304Z,35.41
2022-07-30T06:31:38.277Z,36.09
2022-07-30T06:32:38.266Z,35.81
2022-07-30T06:33:38.255Z,35.61
2022-07-30T06:34:38.254Z,36.00
2022-07-30T06:35:38.232Z,35.50
2022-07-30T06:36:38.222Z,35.60
2022-07-30T06:38:05.973Z,35.52
2022-07-30T06:38:39.199Z,35.50
2022-07-30T06:39:58.117Z,35.52
2022-07-30T06:40:39.206Z,35.50
2022-07-30T06:41:38.166Z,35.40
2022-07-30T06:42:38.158Z,35.40
2022-07-30T06:43:38.144Z,35.40
2022-07-30T06:44:38.133Z,35.99
2022-07-30T06:45:38.122Z,35.89
2022-07-30T06:46:38.179Z,35.89
2022-07-30T06:47:38.100Z,35.99
2022-07-30T06:48:38.089Z,35.69
2022-07-30T06:49:38.083Z,35.60
2022-07-30T06:50:38.066Z,35.69
2022-07-30T06:51:38.058Z,35.60
2022-07-30T06:52:38.059Z,35.40
2022-07-30T06:53:42.513Z,35.69
2022-07-30T06:54:38.025Z,35.40
2022-07-30T06:55:38.013Z,35.40
2022-07-30T06:56:38.001Z,35.30
2022-07-30T06:57:42.327Z,35.69
2022-07-30T06:58:37.985Z,35.40
2022-07-30T06:59:56.705Z,35.30
2022-07-30T07:00:38.955Z,35.28
2022-07-30T07:01:37.968Z,35.40
2022-07-30T07:02:37.937Z,35.69
2022-07-30T07:03:40.236Z,35.40
2022-07-30T07:04:37.977Z,35.69
2022-07-30T07:05:37.902Z,35.28
2022-07-30T07:06:37.890Z,35.50
2022-07-30T07:07:42.995Z,35.48
2022-07-30T07:08:38.866Z,35.38
2022-07-30T07:09:38.492Z,35.30
2022-07-30T07:10:38.853Z,35.69
2022-07-30T07:11:37.838Z,35.58
2022-07-30T07:12:37.822Z,35.88
2022-07-30T07:13:37.813Z,35.77
2022-07-30T07:14:37.800Z,35.79
2022-07-30T07:15:37.843Z,35.50
2022-07-30T07:16:37.811Z,35.38
2022-07-30T07:17:37.770Z,35.88
2022-07-30T07:18:37.756Z,35.69
2022-07-30T07:20:01.470Z,35.40
2022-07-30T07:20:38.733Z,35.58
2022-07-30T07:21:37.724Z,35.58
2022-07-30T07:22:37.732Z,35.69
2022-07-30T07:23:41.411Z,35.58
2022-07-30T07:24:37.689Z,35.58
2022-07-30T07:25:37.679Z,35.58
2022-07-30T07:26:37.671Z,35.60
2022-07-30T07:27:37.655Z,35.58
2022-07-30T07:28:37.661Z,35.58
2022-07-30T07:29:37.635Z,35.58
2022-07-30T07:30:37.694Z,35.77
2022-07-30T07:32:05.706Z,35.48
2022-07-30T07:32:38.600Z,35.48
2022-07-30T07:33:37.589Z,35.48
2022-07-30T07:34:37.584Z,35.88
2022-07-30T07:35:48.423Z,35.58
2022-07-30T07:36:38.557Z,36.17
2022-07-30T07:37:37.549Z,35.77
2022-07-30T07:38:37.536Z,35.58
2022-07-30T07:39:42.035Z,35.68
2022-07-30T07:40:37.519Z,35.68
2022-07-30T07:41:48.313Z,35.97
2022-07-30T07:42:38.489Z,36.05
2022-07-30T07:43:37.491Z,35.68
2022-07-30T07:44:37.473Z,35.88
2022-07-30T07:45:37.598Z,35.97
2022-07-30T07:46:37.488Z,35.97
2022-07-30T07:47:37.437Z,35.97
2022-07-30T07:48:37.424Z,35.97
2022-07-30T07:49:37.417Z,35.36
2022-07-30T07:50:37.402Z,35.77
2022-07-30T07:51:48.094Z,35.77
2022-07-30T07:52:38.386Z,35.58
2022-07-30T07:53:37.370Z,35.86
2022-07-30T07:54:37.358Z,35.88
2022-07-30T07:55:37.346Z,35.97
2022-07-30T07:56:37.338Z,36.15
2022-07-30T07:57:37.325Z,35.66
2022-07-30T07:58:37.326Z,35.66
2022-07-30T07:59:40.352Z,36.05
2022-07-30T08:00:37.291Z,35.66
2022-07-30T08:01:37.327Z,36.05
2022-07-30T08:02:37.368Z,35.66
2022-07-30T08:03:37.259Z,35.36
2022-07-30T08:04:37.268Z,35.46
2022-07-30T08:06:00.945Z,35.36
2022-07-30T08:06:38.223Z,35.36
2022-07-30T08:07:37.214Z,35.36
2022-07-30T08:08:37.212Z,35.56
2022-07-30T08:09:43.938Z,35.46
2022-07-30T08:10:38.194Z,35.56
2022-07-30T08:11:37.170Z,35.36
2022-07-30T08:12:37.162Z,35.86
2022-07-30T08:13:52.100Z,35.86
2022-07-30T08:14:38.137Z,35.76
2022-07-30T08:15:37.124Z,35.76
2022-07-30T08:16:37.186Z,35.76
2022-07-30T08:17:37.104Z,35.56
2022-07-30T08:18:37.092Z,35.76
2022-07-30T08:19:37.082Z,35.17
2022-07-30T08:20:37.069Z,35.56
2022-07-30T08:21:37.060Z,35.07
2022-07-30T08:22:37.069Z,35.54
2022-07-30T08:23:42.198Z,35.27
2022-07-30T08:24:38.025Z,34.66
2022-07-30T08:25:37.014Z,35.07
2022-07-30T08:26:37.005Z,34.46
2022-07-30T08:27:36.993Z,34.48
2022-07-30T08:28:36.993Z,35.46
2022-07-30T08:29:36.970Z,35.27
2022-07-30T08:30:36.962Z,34.38
2022-07-30T08:31:36.953Z,34.75
2022-07-30T08:32:36.944Z,34.77
2022-07-30T08:33:36.926Z,34.77
2022-07-30T08:34:36.921Z,35.54
2022-07-30T08:35:36.904Z,34.97
2022-07-30T08:36:37.891Z,34.75
2022-07-30T08:37:36.883Z,34.75
2022-07-30T08:38:36.871Z,34.56
2022-07-30T08:39:36.861Z,34.77
2022-07-30T08:40:36.855Z,34.86
2022-07-30T08:41:36.838Z,34.56
2022-07-30T08:42:36.826Z,34.46
2022-07-30T08:43:36.815Z,34.75
2022-07-30T08:44:36.804Z,34.66
2022-07-30T08:45:36.797Z,35.05
2022-07-30T08:46:36.789Z,35.15
2022-07-30T08:47:36.771Z,35.05
2022-07-30T08:48:36.761Z,35.05
2022-07-30T08:49:36.750Z,35.05
2022-07-30T08:50:36.738Z,34.86
2022-07-30T08:51:36.728Z,34.75
2022-07-30T08:52:36.747Z,35.05
2022-07-30T08:53:36.705Z,34.86
2022-07-30T08:54:36.695Z,34.66
2022-07-30T08:55:36.683Z,34.86
2022-07-30T08:56:36.671Z,34.86
2022-07-30T08:57:36.661Z,34.84
2022-07-30T08:58:36.658Z,34.86
2022-07-30T08:59:59.935Z,34.56
2022-07-30T09:00:37.625Z,34.84
2022-07-30T09:01:36.617Z,34.66
2022-07-30T09:02:36.607Z,34.86
2022-07-30T09:03:36.594Z,34.84
2022-07-30T09:04:37.589Z,34.86
2022-07-30T09:05:36.572Z,34.86
2022-07-30T09:06:36.565Z,34.74
2022-07-30T09:07:36.553Z,34.64
2022-07-30T09:08:36.539Z,34.95
2022-07-30T09:09:36.528Z,35.44
2022-07-30T09:10:36.538Z,35.35
2022-07-30T09:11:36.508Z,34.94
2022-07-30T09:12:36.494Z,35.44
2022-07-30T09:13:36.483Z,34.84
2022-07-30T09:14:36.473Z,35.03
2022-07-30T09:15:36.461Z,34.66
2022-07-30T09:16:36.456Z,35.23
2022-07-30T09:17:36.439Z,34.84
2022-07-30T09:18:36.427Z,34.64
2022-07-30T09:19:36.416Z,35.43
2022-07-30T09:20:36.409Z,34.64
2022-07-30T09:21:36.395Z,35.23
2022-07-30T09:22:36.392Z,34.94
2022-07-30T09:23:36.373Z,34.94
2022-07-30T09:24:36.362Z,34.84
2022-07-30T09:25:36.352Z,34.84
2022-07-30T09:26:36.340Z,34.94
2022-07-30T09:27:36.329Z,34.94
2022-07-30T09:28:36.340Z,34.84
2022-07-30T09:29:36.307Z,34.84
2022-07-30T09:30:36.297Z,34.15
2022-07-30T09:31:37.931Z,34.64
2022-07-30T09:32:37.273Z,34.84
2022-07-30T09:33:36.266Z,34.34
2022-07-30T09:34:36.257Z,34.64
2022-07-30T09:35:36.240Z,34.64
2022-07-30T09:36:36.232Z,34.15
2022-07-30T09:37:36.218Z,34.15
2022-07-30T09:38:36.207Z,34.64
2022-07-30T09:39:36.196Z,34.25
2022-07-30T09:40:36.204Z,34.15
2022-07-30T09:41:39.168Z,34.15
2022-07-30T09:42:36.163Z,34.64
2022-07-30T09:43:36.152Z,34.64
2022-07-30T09:44:36.140Z,34.44
2022-07-30T09:45:36.131Z,34.25
2022-07-30T09:46:36.125Z,34.15
2022-07-30T09:47:36.107Z,34.84
2022-07-30T09:48:36.097Z,34.64
2022-07-30T09:49:36.086Z,34.64
2022-07-30T09:50:36.076Z,34.64
2022-07-30T09:51:55.833Z,34.74
2022-07-30T09:52:37.060Z,34.54
2022-07-30T09:53:37.040Z,34.74
2022-07-30T09:54:36.030Z,34.44
2022-07-30T09:55:36.019Z,34.34
2022-07-30T09:56:37.006Z,34.25
2022-07-30T09:57:35.996Z,34.15
2022-07-30T09:58:37.016Z,34.34
2022-07-30T09:59:35.977Z,34.15
2022-07-30T10:00:35.963Z,34.13
2022-07-30T10:01:47.515Z,34.05
2022-07-30T10:02:36.941Z,34.34
2022-07-30T10:03:42.356Z,34.82
2022-07-30T10:04:36.925Z,34.54
2022-07-30T10:05:35.908Z,34.34
2022-07-30T10:06:38.067Z,34.23
2022-07-30T10:07:42.673Z,34.23
2022-07-30T10:08:36.877Z,34.33
2022-07-30T10:09:37.476Z,34.43
2022-07-30T10:10:35.867Z,34.15
2022-07-30T10:11:36.842Z,34.05
2022-07-30T10:12:35.832Z,34.63
2022-07-30T10:13:35.820Z,34.23
2022-07-30T10:14:42.404Z,34.25
2022-07-30T10:15:36.812Z,34.64
2022-07-30T10:16:35.794Z,34.23
2022-07-30T10:17:35.777Z,34.72
2022-07-30T10:18:35.764Z,34.72
2022-07-30T10:19:40.417Z,34.72
2022-07-30T10:20:36.741Z,34.82
2022-07-30T10:21:36.111Z,34.63
2022-07-30T10:22:36.194Z,34.82
2022-07-30T10:23:35.897Z,34.72
2022-07-30T10:24:35.699Z,34.72
2022-07-30T10:25:35.689Z,34.72
2022-07-30T10:26:35.677Z,34.72
2022-07-30T10:27:35.670Z,34.72
2022-07-30T10:28:39.351Z,34.72
2022-07-30T10:29:35.643Z,34.63
2022-07-30T10:30:35.633Z,34.82
2022-07-30T10:31:48.388Z,34.72
2022-07-30T10:32:36.631Z,34.43
2022-07-30T10:33:40.274Z,34.63
2022-07-30T10:34:35.587Z,34.82
2022-07-30T10:35:38.445Z,34.82
2022-07-30T10:36:35.566Z,34.82
2022-07-30T10:37:35.555Z,34.41
2022-07-30T10:38:39.404Z,34.63
2022-07-30T10:39:36.531Z,34.92
2022-07-30T10:40:35.522Z,34.90
2022-07-30T10:41:47.315Z,34.80
2022-07-30T10:42:36.503Z,34.90
2022-07-30T10:43:35.487Z,34.90
2022-07-30T10:44:35.499Z,34.80
2022-07-30T10:45:35.466Z,34.90
2022-07-30T10:46:36.455Z,34.80
2022-07-30T10:47:40.390Z,34.90
2022-07-30T10:48:36.433Z,34.90
2022-07-30T10:49:41.357Z,34.90
2022-07-30T10:50:36.415Z,34.51
2022-07-30T10:51:35.400Z,34.61
2022-07-30T10:52:35.396Z,34.80
2022-07-30T10:53:35.382Z,34.61
2022-07-30T10:54:36.664Z,34.90
2022-07-30T10:55:38.589Z,34.70
2022-07-30T10:56:35.350Z,34.61
2022-07-30T10:57:41.571Z,34.43
2022-07-30T10:58:36.322Z,34.72
2022-07-30T10:59:36.311Z,34.63
2022-07-30T11:00:35.352Z,34.63
2022-07-30T11:01:35.290Z,34.63
2022-07-30T11:02:35.686Z,34.53
2022-07-30T11:03:41.701Z,34.53
2022-07-30T11:04:36.255Z,34.82
2022-07-30T11:05:45.393Z,34.72
2022-07-30T11:06:36.233Z,34.72
2022-07-30T11:07:35.238Z,34.72
2022-07-30T11:08:36.186Z,34.70
2022-07-30T11:09:35.201Z,34.53
2022-07-30T11:10:36.189Z,34.82
2022-07-30T11:12:05.454Z,34.72
2022-07-30T11:12:36.166Z,34.61
2022-07-30T11:13:36.261Z,34.70
2022-07-30T11:14:35.153Z,34.72
2022-07-30T11:15:35.135Z,34.82
2022-07-30T11:16:35.148Z,34.82
2022-07-30T11:17:35.113Z,34.72
2022-07-30T11:18:35.101Z,34.70
2022-07-30T11:19:55.866Z,34.70
2022-07-30T11:20:36.085Z,34.41
2022-07-30T11:21:35.069Z,34.41
2022-07-30T11:22:35.059Z,34.61
2022-07-30T11:23:35.655Z,34.80
2022-07-30T11:24:35.036Z,34.70
2022-07-30T11:25:51.225Z,34.70
2022-07-30T11:26:36.019Z,34.31
2022-07-30T11:27:36.234Z,34.51
2022-07-30T11:28:34.990Z,34.10
2022-07-30T11:29:34.982Z,34.31
2022-07-30T11:30:36.035Z,35.00
2022-07-30T11:31:56.558Z,34.11
2022-07-30T11:32:35.951Z,34.69
2022-07-30T11:33:34.935Z,34.10
2022-07-30T11:34:34.925Z,34.10
2022-07-30T11:35:35.564Z,34.69
2022-07-30T11:36:34.903Z,34.51
2022-07-30T11:37:34.892Z,34.20
2022-07-30T11:38:34.927Z,34.39
2022-07-30T11:39:38.775Z,34.10
2022-07-30T11:40:34.889Z,34.49
2022-07-30T11:41:34.847Z,34.00
2022-07-30T11:42:34.841Z,32.90
2022-07-30T11:43:36.857Z,33.28
2022-07-30T11:44:34.820Z,33.08
2022-07-30T11:45:34.802Z,32.98
2022-07-30T11:46:34.792Z,32.66
2022-07-30T11:47:34.780Z,32.94
2022-07-30T11:48:34.771Z,31.55
2022-07-30T11:49:34.761Z,31.35
2022-07-30T11:50:34.763Z,32.12
2022-07-30T11:51:34.737Z,30.74
2022-07-30T11:52:34.729Z,30.83
2022-07-30T11:53:34.858Z,31.21
2022-07-30T11:54:34.703Z,31.51
2022-07-30T11:55:34.693Z,31.21
2022-07-30T11:56:34.687Z,31.03
2022-07-30T11:57:38.428Z,30.64
2022-07-30T11:58:34.660Z,31.83
2022-07-30T11:59:34.650Z,31.83
2022-07-30T12:00:34.638Z,31.63
2022-07-30T12:01:34.626Z,32.03
2022-07-30T12:02:34.623Z,31.83
2022-07-30T12:03:34.604Z,31.54
2022-07-30T12:04:34.594Z,31.83
2022-07-30T12:05:34.583Z,32.12
2022-07-30T12:06:34.572Z,32.12
2022-07-30T12:07:34.561Z,30.83
2022-07-30T12:08:36.265Z,31.60
2022-07-30T12:09:34.541Z,31.31
2022-07-30T12:10:34.530Z,31.03
2022-07-30T12:11:34.519Z,30.74
2022-07-30T12:12:34.505Z,31.03
2022-07-30T12:13:44.905Z,32.12
2022-07-30T12:14:35.514Z,32.22
2022-07-30T12:15:34.473Z,31.65
2022-07-30T12:16:34.460Z,31.45
2022-07-30T12:17:34.450Z,31.54
2022-07-30T12:18:34.439Z,31.54
2022-07-30T12:19:47.931Z,31.83
2022-07-30T12:20:35.430Z,31.93
2022-07-30T12:21:34.408Z,30.83
2022-07-30T12:22:34.395Z,31.62
2022-07-30T12:23:34.384Z,30.82
2022-07-30T12:24:34.373Z,31.01
2022-07-30T12:25:34.362Z,30.71
2022-07-30T12:26:34.481Z,31.20
2022-07-30T12:27:34.339Z,30.90
2022-07-30T12:28:34.329Z,31.01
2022-07-30T12:29:34.318Z,31.42
2022-07-30T12:30:34.309Z,31.39
2022-07-30T12:31:34.317Z,30.51
2022-07-30T12:32:35.290Z,31.31
2022-07-30T12:33:34.274Z,30.91
2022-07-30T12:34:34.263Z,31.01
2022-07-30T12:35:34.252Z,31.21
2022-07-30T12:36:34.241Z,31.60
2022-07-30T12:37:34.229Z,30.90
2022-07-30T12:38:34.241Z,31.41
2022-07-30T12:39:34.209Z,31.01
2022-07-30T12:40:34.196Z,31.51
2022-07-30T12:41:34.191Z,31.21
2022-07-30T12:42:34.176Z,31.41
2022-07-30T12:43:34.164Z,31.21
2022-07-30T12:44:34.159Z,31.11
2022-07-30T12:45:50.463Z,31.29
2022-07-30T12:46:35.130Z,30.61
2022-07-30T12:47:34.119Z,31.00
2022-07-30T12:48:34.110Z,31.39
2022-07-30T12:49:37.654Z,31.21
2022-07-30T12:50:35.091Z,31.11
2022-07-30T12:51:34.078Z,31.01
2022-07-30T12:52:34.455Z,31.39
2022-07-30T12:53:34.054Z,30.90